Time;durP1;ratioP1;P1;durP2;ratioP2;P2;SDS_P1;SDS_P2;PMS_P1;PMS_P2;Temp;Humidity;BMP_temperature;BMP_pressure;BME280_temperature;BME280_humidity;BME280_pressure;Samples;Min_cycle;Max_cycle;Signal;HPM_P1;HPM_P2
2024/01/27 00:01:23;;;;;;;;;10.50;9.75;;;;;9.32;51.88;103200.19;5072763;28;45514;-65
2024/01/27 00:03:50;;;;;;;;;12.50;7.25;;;;;9.32;52.03;103202.78;5068585;28;45548;-65
2024/01/27 00:06:15;;;;;;;;;7.50;7.50;;;;;9.28;52.19;103201.78;5074047;28;45766;-64
2024/01/27 00:08:42;;;;;;;;;8.00;4.50;;;;;9.36;51.77;103204.75;5074019;28;45606;-64
2024/01/27 00:11:07;;;;;;;;;8.50;8.00;;;;;9.29;51.63;103194.81;5056521;28;45600;-66
2024/01/27 00:13:33;;;;;;;;;8.50;8.50;;;;;9.32;51.60;103198.50;5076629;28;45490;-64
2024/01/27 00:15:58;;;;;;;;;10.75;9.25;;;;;9.28;51.92;103195.66;5073636;28;45566;-66
2024/01/27 00:18:24;;;;;;;;;13.25;10.00;;;;;9.30;52.05;103204.44;5061018;28;45556;-65
2024/01/27 00:20:50;;;;;;;;;13.50;8.50;;;;;9.31;52.08;103207.13;5062291;28;45615;-65
2024/01/27 00:23:15;;;;;;;;;10.25;6.00;;;;;9.33;51.85;103213.34;5077667;28;45701;-67
2024/01/27 00:25:41;;;;;;;;;16.50;10.00;;;;;9.13;52.62;103216.72;5078112;28;45318;-65
2024/01/27 00:28:06;;;;;;;;;13.75;12.25;;;;;8.98;53.13;103219.50;5050507;28;45338;-66
2024/01/27 00:30:32;;;;;;;;;21.00;14.50;;;;;8.85;53.84;103212.81;5071696;28;45338;-64
2024/01/27 00:32:57;;;;;;;;;23.50;17.25;;;;;8.75;54.27;103222.72;5059021;28;45521;-65
2024/01/27 00:35:23;;;;;;;;;21.75;17.75;;;;;8.66;54.90;103233.59;5065221;28;45635;-66
2024/01/27 00:37:48;;;;;;;;;23.25;20.25;;;;;8.55;55.00;103225.25;5074723;28;46148;-66
2024/01/27 00:40:14;;;;;;;;;27.75;24.25;;;;;8.58;55.01;103221.88;5077948;28;45643;-66
2024/01/27 00:42:41;;;;;;;;;27.25;25.25;;;;;8.57;55.39;103217.50;5061899;28;45370;-66
2024/01/27 00:45:07;;;;;;;;;30.50;26.25;;;;;8.46;55.78;103210.00;5074040;28;46630;-66
2024/01/27 00:47:32;;;;;;;;;26.75;24.00;;;;;8.41;55.75;103215.81;5061427;28;45958;-66
2024/01/27 00:49:58;;;;;;;;;41.75;34.00;;;;;8.38;56.23;103216.53;5062435;28;45485;-66
2024/01/27 00:52:24;;;;;;;;;49.50;37.75;;;;;8.30;55.89;103217.84;5074234;28;45373;-66
2024/01/27 00:54:49;;;;;;;;;39.00;30.00;;;;;8.34;56.11;103218.91;5073667;28;45496;-66
2024/01/27 00:57:15;;;;;;;;;39.25;32.00;;;;;8.33;56.50;103211.88;5070320;28;46008;-66
2024/01/27 00:59:41;;;;;;;;;50.00;37.00;;;;;8.32;56.17;103210.97;5055634;28;45465;-66
2024/01/27 01:02:07;;;;;;;;;42.50;35.25;;;;;8.23;56.83;103211.44;5068113;28;45535;-66
2024/01/27 01:04:33;;;;;;;;;37.25;34.00;;;;;8.24;56.72;103214.94;5073141;28;45420;-66
2024/01/27 01:06:59;;;;;;;;;41.25;32.00;;;;;8.19;56.50;103204.25;5062272;28;45951;-66
2024/01/27 01:09:31;;;;;;;;;36.00;33.50;;;;;8.27;56.74;103212.47;5073695;28;45544;-65
2024/01/27 01:12:02;;;;;;;;;42.75;31.75;;;;;8.33;56.68;103212.78;5059595;28;45526;-65
2024/01/27 01:14:27;;;;;;;;;44.75;33.75;;;;;8.35;56.36;103194.56;5065473;28;45496;-65
2024/01/27 01:16:53;;;;;;;;;33.25;23.00;;;;;8.42;56.35;103194.09;5049719;28;46200;-66
2024/01/27 01:19:19;;;;;;;;;47.00;36.75;;;;;8.36;56.75;103189.44;5057385;28;45448;-66
2024/01/27 01:21:44;;;;;;;;;51.25;42.00;;;;;8.20;57.26;103172.09;5064809;28;45552;-67
2024/01/27 01:24:10;;;;;;;;;46.50;38.00;;;;;8.25;57.13;103188.00;5056597;28;45532;-66
2024/01/27 01:26:35;;;;;;;;;48.50;38.00;;;;;8.11;57.29;103179.44;5071118;28;45611;-66
2024/01/27 01:29:01;;;;;;;;;46.75;35.50;;;;;8.20;57.21;103190.38;5057069;28;45337;-66
2024/01/27 01:31:27;;;;;;;;;41.25;35.00;;;;;8.23;57.15;103185.31;5073302;28;45551;-66
2024/01/27 01:33:52;;;;;;;;;41.50;31.75;;;;;8.31;57.08;103184.81;5071781;28;45566;-66
2024/01/27 01:36:18;;;;;;;;;51.50;36.75;;;;;8.34;56.87;103191.06;5067783;28;46118;-67
2024/01/27 01:38:44;;;;;;;;;44.25;35.50;;;;;8.38;56.91;103190.41;5075213;28;45436;-65
2024/01/27 01:41:10;;;;;;;;;43.25;33.00;;;;;8.42;57.33;103189.78;5069013;28;45466;-66
2024/01/27 01:43:35;;;;;;;;;45.50;35.25;;;;;8.25;56.73;103157.56;5066448;28;45430;-64
2024/01/27 01:46:01;;;;;;;;;42.25;34.75;;;;;8.38;57.00;103184.31;5057078;28;45849;-66
2024/01/27 01:48:27;;;;;;;;;41.50;35.25;;;;;8.34;57.08;103179.75;5054683;28;45466;-66
2024/01/27 01:50:53;;;;;;;;;57.00;45.25;;;;;8.27;57.45;103183.75;5038135;28;45570;-67
2024/01/27 01:53:18;;;;;;;;;50.75;39.50;;;;;8.19;57.98;103183.38;5062863;28;45489;-67
2024/01/27 01:55:46;;;;;;;;;51.00;39.00;;;;;8.24;57.76;103173.16;5058216;28;46662;-66
2024/01/27 01:58:12;;;;;;;;;52.00;41.00;;;;;8.10;57.99;103168.94;5071878;28;45495;-67
2024/01/27 02:00:37;;;;;;;;;67.50;50.75;;;;;7.92;58.59;103175.00;5067851;28;45426;-67
2024/01/27 02:03:03;;;;;;;;;66.00;52.50;;;;;7.93;58.94;103196.78;5063721;28;45508;-67
2024/01/27 02:05:29;;;;;;;;;59.50;45.00;;;;;7.90;58.67;103200.16;5074586;28;46246;-65
2024/01/27 02:07:56;;;;;;;;;68.00;49.25;;;;;7.94;58.74;103209.91;5077391;28;45319;-66
2024/01/27 02:10:22;;;;;;;;;71.25;53.25;;;;;7.85;59.15;103212.03;5058351;28;45385;-67
2024/01/27 02:12:47;;;;;;;;;73.25;52.50;;;;;7.71;59.40;103205.19;5076251;28;45549;-66
2024/01/27 02:15:13;;;;;;;;;65.67;50.33;;;;;7.65;59.56;103209.25;5070345;28;45852;-65
2024/01/27 02:17:40;;;;;;;;;66.75;53.50;;;;;7.66;59.88;103194.50;5067530;28;45353;-66
2024/01/27 02:20:07;;;;;;;;;71.33;55.33;;;;;7.58;59.91;103191.50;5058053;28;45467;-65
2024/01/27 02:22:33;;;;;;;;;74.00;56.33;;;;;7.52;59.98;103191.19;5077735;28;45390;-66
2024/01/27 02:24:59;;;;;;;;;62.00;52.00;;;;;7.52;60.27;103195.47;5077609;28;45532;-66
2024/01/27 02:27:25;;;;;;;;;69.67;53.67;;;;;7.52;60.07;103190.25;5077753;28;46115;-66
2024/01/27 02:29:50;;;;;;;;;68.33;52.33;;;;;7.57;60.28;103192.31;5076500;28;46021;-66
2024/01/27 02:32:16;;;;;;;;;66.67;52.33;;;;;7.56;60.52;103197.44;5075263;28;45444;-65
2024/01/27 02:34:42;;;;;;;;;69.00;54.33;;;;;7.53;60.45;103186.84;5077018;28;46119;-65
2024/01/27 02:37:07;;;;;;;;;70.00;53.67;;;;;7.37;60.47;103185.13;5078578;28;45511;-64
2024/01/27 02:39:33;;;;;;;;;68.67;52.00;;;;;7.29;61.14;103189.94;5063054;28;45437;-65
2024/01/27 02:41:58;;;;;;;;;72.33;56.00;;;;;7.15;61.11;103163.09;5081604;28;45285;-66
2024/01/27 02:44:24;;;;;;;;;74.67;56.67;;;;;7.25;61.20;103182.75;5079692;28;46243;-65
2024/01/27 02:46:49;;;;;;;;;80.00;59.33;;;;;7.24;61.48;103173.16;5079741;28;45289;-66
2024/01/27 02:49:15;;;;;;;;;71.33;55.33;;;;;7.25;61.21;103179.25;5079899;28;45621;-67
2024/01/27 02:51:40;;;;;;;;;73.00;55.33;;;;;7.26;61.04;103173.19;5079449;28;45515;-67
2024/01/27 02:54:06;;;;;;;;;73.33;53.67;;;;;7.26;61.35;103181.94;5060745;28;46400;-65
2024/01/27 02:56:32;;;;;;;;;70.33;54.33;;;;;7.21;61.40;103180.78;5064754;28;45228;-65
2024/01/27 02:58:57;;;;;;;;;71.33;54.33;;;;;7.16;61.38;103175.31;5079884;28;45692;-66
2024/01/27 03:01:23;;;;;;;;;68.67;52.00;;;;;7.18;61.32;103173.69;5079394;28;45362;-66
2024/01/27 03:03:48;;;;;;;;;74.67;56.33;;;;;7.11;61.22;103171.56;5079153;28;45524;-67
2024/01/27 03:06:14;;;;;;;;;70.33;55.67;;;;;7.02;61.41;103158.00;5079334;28;45333;-68
2024/01/27 03:08:39;;;;;;;;;67.33;54.33;;;;;7.17;61.33;103168.41;5079353;28;45251;-66
2024/01/27 03:11:05;;;;;;;;;70.00;53.67;;;;;7.15;61.49;103185.66;5080741;28;45396;-66
2024/01/27 03:13:31;;;;;;;;;72.00;53.67;;;;;6.91;62.15;103156.53;5078935;28;46608;-66
2024/01/27 03:15:57;;;;;;;;;74.00;58.00;;;;;6.96;62.50;103163.78;5062197;28;45400;-66
2024/01/27 03:18:24;;;;;;;;;72.67;56.33;;;;;6.88;62.86;103158.94;5062480;28;45476;-66
2024/01/27 03:20:50;;;;;;;;;75.67;57.67;;;;;6.95;62.34;103162.00;5079247;28;45460;-66
2024/01/27 03:23:15;;;;;;;;;66.00;51.67;;;;;7.04;61.87;103160.72;5079042;28;46166;-66
2024/01/27 03:25:41;;;;;;;;;69.67;53.00;;;;;7.10;62.14;103151.53;5061733;28;45549;-66
2024/01/27 03:28:07;;;;;;;;;68.33;51.00;;;;;7.14;61.63;103155.19;5080735;28;45538;-65
2024/01/27 03:30:32;;;;;;;;;72.00;52.33;;;;;7.19;61.88;103162.47;5062569;28;45363;-65
2024/01/27 03:32:58;;;;;;;;;66.67;54.00;;;;;7.14;62.33;103161.31;5079821;28;45507;-66
2024/01/27 03:35:24;;;;;;;;;72.67;55.33;;;;;7.14;62.29;103166.53;5078528;28;45297;-66
2024/01/27 03:37:51;;;;;;;;;75.00;56.33;;;;;7.03;62.60;103162.44;5078916;28;45250;-66
2024/01/27 03:40:17;;;;;;;;;71.33;55.00;;;;;6.87;62.79;103157.19;5078937;28;45385;-65
2024/01/27 03:42:42;;;;;;;;;71.67;55.67;;;;;6.89;62.83;103159.06;5078137;28;45473;-65
2024/01/27 03:45:08;;;;;;;;;72.33;57.00;;;;;6.88;62.97;103148.53;5078197;28;45279;-65
2024/01/27 03:47:33;;;;;;;;;76.33;58.33;;;;;6.85;62.84;103135.34;5078574;28;45398;-66
2024/01/27 03:49:59;;;;;;;;;75.00;54.00;;;;;6.76;62.59;103136.63;5075233;28;45551;-66
2024/01/27 03:52:24;;;;;;;;;77.33;60.67;;;;;6.86;63.17;103155.34;5063354;28;45946;-66
2024/01/27 03:54:50;;;;;;;;;74.67;55.67;;;;;6.84;63.17;103152.69;5077802;28;45328;-66
2024/01/27 03:57:16;;;;;;;;;67.33;53.33;;;;;6.76;63.37;103147.06;5079636;28;45320;-65
2024/01/27 03:59:41;;;;;;;;;79.67;62.00;;;;;6.64;64.12;103146.34;5078567;28;45285;-66
2024/01/27 04:02:07;;;;;;;;;74.33;59.67;;;;;6.54;64.29;103136.22;5078961;28;45654;-65
2024/01/27 04:04:33;;;;;;;;;73.00;56.67;;;;;6.59;64.07;103145.19;5062096;28;45320;-65
2024/01/27 04:09:47;;;;;;;;;80.33;60.00;;;;;6.63;64.39;103152.38;5067333;28;45615;-66
2024/01/27 04:12:13;;;;;;;;;75.33;59.67;;;;;6.58;64.34;103153.81;5077392;28;46559;-65
2024/01/27 04:14:39;;;;;;;;;82.00;63.00;;;;;6.49;64.33;103154.19;5077707;28;45503;-66
2024/01/27 04:17:04;;;;;;;;;77.33;59.00;;;;;6.47;64.62;103147.09;5067643;28;45399;-67
2024/01/27 04:19:30;;;;;;;;;87.00;65.67;;;;;6.35;64.34;103152.50;5080071;28;45389;-65
2024/01/27 04:21:56;;;;;;;;;85.33;66.00;;;;;6.16;64.64;103140.13;5079508;28;45319;-65
2024/01/27 04:24:30;;;;;;;;;79.00;61.33;;;;;6.18;64.97;103140.22;5079392;28;45470;-66
2024/01/27 04:26:58;;;;;;;;;82.33;63.67;;;;;6.20;64.72;103155.09;5078377;28;45357;-65
2024/01/27 04:29:24;;;;;;;;;71.33;53.67;;;;;6.23;64.97;103165.69;5059752;28;45433;-65
2024/01/27 04:31:49;;;;;;;;;77.67;61.00;;;;;6.17;65.24;103149.72;5077908;28;46009;-67
2024/01/27 04:34:15;;;;;;;;;77.00;59.33;;;;;6.23;65.04;103143.97;5077791;28;45270;-65
2024/01/27 04:36:40;;;;;;;;;68.33;54.67;;;;;6.27;65.11;103162.47;5078023;28;45413;-66
2024/01/27 04:39:06;;;;;;;;;79.67;59.67;;;;;6.15;64.87;103169.56;5079451;28;45993;-66
2024/01/27 04:41:31;;;;;;;;;76.67;59.00;;;;;6.21;65.19;103177.72;5059684;28;46985;-66
2024/01/27 04:43:58;;;;;;;;;76.00;59.33;;;;;6.22;65.19;103176.91;5077621;28;45408;-65
2024/01/27 04:46:24;;;;;;;;;72.00;58.00;;;;;6.10;65.28;103176.19;5077367;28;45513;-66
2024/01/27 04:48:49;;;;;;;;;75.67;58.00;;;;;6.04;65.72;103175.81;5076308;28;45380;-66
2024/01/27 04:51:15;;;;;;;;;76.33;58.33;;;;;6.03;65.44;103171.44;5077099;28;45836;-66
2024/01/27 04:53:41;;;;;;;;;75.33;58.33;;;;;6.10;65.48;103165.78;5076621;28;45654;-66
2024/01/27 04:56:07;;;;;;;;;71.00;55.67;;;;;6.19;65.15;103163.69;5074566;28;45408;-66
2024/01/27 04:58:34;;;;;;;;;73.00;58.00;;;;;6.22;65.01;103173.44;5069318;28;45532;-66
2024/01/27 05:01:01;;;;;;;;;77.67;58.67;;;;;6.26;64.89;103171.06;5076903;28;45610;-66
2024/01/27 05:03:26;;;;;;;;;72.00;54.67;;;;;6.26;64.94;103158.06;5060035;28;45497;-67
2024/01/27 05:05:52;;;;;;;;;77.33;58.67;;;;;6.31;65.08;103169.66;5077825;28;45510;-66
2024/01/27 05:08:19;;;;;;;;;73.00;60.00;;;;;6.28;65.57;103181.56;5077596;28;46053;-65
2024/01/27 05:10:44;;;;;;;;;81.00;63.00;;;;;6.24;65.25;103180.50;5062327;28;45690;-65
2024/01/27 05:13:10;;;;;;;;;82.33;64.67;;;;;6.18;65.68;103176.66;5077443;28;45574;-66
2024/01/27 05:15:35;;;;;;;;;82.67;64.00;;;;;6.11;65.76;103170.19;5059720;28;45418;-65
2024/01/27 05:18:01;;;;;;;;;77.33;57.67;;;;;5.86;66.27;103158.28;5067493;28;45501;-65
2024/01/27 05:20:27;;;;;;;;;78.00;58.67;;;;;5.89;66.14;103186.19;5075617;28;47625;-65
2024/01/27 05:22:52;;;;;;;;;76.67;63.67;;;;;5.87;66.59;103190.38;5077217;28;45345;-66
2024/01/27 05:25:18;;;;;;;;;88.33;72.33;;;;;5.84;66.48;103187.63;5075664;28;45536;-66
2024/01/27 05:27:43;;;;;;;;;83.33;62.33;;;;;5.67;67.17;103168.34;5077197;28;45390;-66
2024/01/27 05:30:09;;;;;;;;;75.00;61.00;;;;;5.73;66.66;103189.53;5076722;28;45739;-66
2024/01/27 05:32:34;;;;;;;;;84.33;62.33;;;;;5.78;66.54;103192.44;5078008;28;45535;-66
2024/01/27 05:35:00;;;;;;;;;77.00;60.67;;;;;5.79;66.52;103183.81;5078365;28;45826;-66
2024/01/27 05:37:26;;;;;;;;;72.67;62.00;;;;;5.72;66.73;103162.66;5078493;28;45444;-66
2024/01/27 05:39:51;;;;;;;;;85.67;67.33;;;;;5.79;66.68;103183.81;5075366;28;46344;-66
2024/01/27 05:42:17;;;;;;;;;78.33;67.00;;;;;5.60;67.36;103150.59;5076660;28;45467;-66
2024/01/27 05:44:42;;;;;;;;;74.00;60.33;;;;;5.70;66.87;103169.47;5076641;28;45436;-66
2024/01/27 05:47:10;;;;;;;;;73.33;58.67;;;;;5.66;67.29;103170.06;5077248;28;45292;-66
2024/01/27 05:49:36;;;;;;;;;71.67;62.33;;;;;5.64;67.45;103179.47;5044180;28;45362;-70
2024/01/27 05:52:03;;;;;;;;;80.67;64.00;;;;;5.64;67.12;103165.56;5076245;28;45522;-66
2024/01/27 05:54:29;;;;;;;;;72.00;59.00;;;;;5.78;66.62;103180.31;5075085;28;45432;-67
2024/01/27 05:56:54;;;;;;;;;74.33;57.67;;;;;5.67;66.86;103161.47;5060272;28;45457;-65
2024/01/27 05:59:20;;;;;;;;;75.00;61.67;;;;;5.80;66.47;103170.03;5056378;28;46633;-66
2024/01/27 06:01:45;;;;;;;;;72.00;57.67;;;;;5.79;67.19;103163.94;5071573;28;45457;-65
2024/01/27 06:04:14;;;;;;;;;72.00;60.00;;;;;5.70;66.93;103158.16;5056379;28;45252;-66
2024/01/27 06:06:40;;;;;;;;;72.33;55.00;;;;;5.70;67.24;103171.16;5056613;28;45281;-66
2024/01/27 06:09:06;;;;;;;;;82.33;61.67;;;;;5.66;66.79;103158.78;5056293;28;46327;-66
2024/01/27 06:11:32;;;;;;;;;81.33;60.67;;;;;5.67;66.56;103168.34;5055058;28;45342;-65
2024/01/27 06:13:58;;;;;;;;;69.00;52.67;;;;;5.58;66.53;103162.63;5070326;28;45315;-65
2024/01/27 06:16:23;;;;;;;;;66.67;51.00;;;;;5.70;66.55;103172.06;5071353;28;45461;-66
2024/01/27 06:18:49;;;;;;;;;70.33;52.33;;;;;5.66;66.32;103170.06;5067879;28;45687;-65
2024/01/27 06:21:15;;;;;;;;;68.33;55.67;;;;;5.66;66.26;103187.38;5040946;28;45812;-66
2024/01/27 06:23:40;;;;;;;;;75.33;56.33;;;;;5.63;67.09;103193.28;5074617;28;45341;-66
2024/01/27 06:26:07;;;;;;;;;69.33;54.67;;;;;5.59;66.81;103183.50;5077874;28;45360;-66
2024/01/27 06:28:32;;;;;;;;;64.33;48.67;;;;;5.59;66.33;103169.59;5073462;28;45332;-66
2024/01/27 06:30:58;;;;;;;;;73.33;59.00;;;;;5.60;66.80;103177.50;5076236;28;45497;-66
2024/01/27 06:33:25;;;;;;;;;73.00;57.33;;;;;5.57;66.90;103179.91;5066659;28;45374;-65
2024/01/27 06:35:50;;;;;;;;;73.33;60.33;;;;;5.47;67.42;103174.94;5068593;28;45500;-65
2024/01/27 06:38:16;;;;;;;;;79.67;62.67;;;;;5.49;67.17;103173.34;5075983;28;45356;-65
2024/01/27 06:40:42;;;;;;;;;72.33;58.67;;;;;5.49;67.00;103174.22;5074189;28;45702;-65
2024/01/27 06:43:07;;;;;;;;;75.00;62.67;;;;;5.43;67.58;103179.03;5072947;28;45309;-67
2024/01/27 06:45:33;;;;;;;;;75.33;62.67;;;;;5.42;67.00;103178.97;5063522;28;45432;-66
2024/01/27 06:47:58;;;;;;;;;74.00;61.33;;;;;5.30;67.51;103158.31;5074258;28;47855;-66
2024/01/27 06:50:24;;;;;;;;;72.67;56.00;;;;;5.38;67.48;103175.25;5056241;28;45377;-66
2024/01/27 06:52:49;;;;;;;;;74.33;58.00;;;;;5.45;67.65;103174.84;5057432;28;45512;-66
2024/01/27 06:55:15;;;;;;;;;74.67;63.33;;;;;5.26;67.96;103159.81;5064456;28;45381;-66
2024/01/27 06:57:40;;;;;;;;;71.67;58.00;;;;;5.29;67.44;103182.47;5071950;28;45533;-67
2024/01/27 07:00:06;;;;;;;;;71.67;55.33;;;;;5.20;67.74;103166.34;5054141;28;45407;-65
2024/01/27 07:02:32;;;;;;;;;76.00;61.00;;;;;5.22;67.64;103163.03;5075810;28;45403;-65
2024/01/27 07:04:58;;;;;;;;;72.33;60.00;;;;;5.21;67.71;103162.94;5076376;28;45781;-65
2024/01/27 07:07:28;;;;;;;;;74.67;57.33;;;;;5.25;67.84;103183.13;5071751;28;45565;-66
2024/01/27 07:09:57;;;;;;;;;69.33;53.00;;;;;5.23;68.18;103172.59;5068537;28;45479;-65
2024/01/27 07:12:24;;;;;;;;;79.00;57.00;;;;;5.21;67.82;103156.03;5056371;28;45372;-65
2024/01/27 07:14:51;;;;;;;;;71.33;56.00;;;;;5.18;68.33;103161.03;5069554;28;45437;-66
2024/01/27 07:17:16;;;;;;;;;72.00;54.67;;;;;5.10;68.56;103149.25;5054524;28;46205;-67
2024/01/27 07:19:42;;;;;;;;;76.67;57.67;;;;;5.10;68.48;103151.84;5057137;28;45398;-65
2024/01/27 07:22:11;;;;;;;;;72.00;58.00;;;;;5.19;68.25;103167.13;5039389;28;45495;-66
2024/01/27 07:24:36;;;;;;;;;72.00;53.67;;;;;5.15;68.00;103154.72;5066533;28;45364;-66
2024/01/27 07:27:03;;;;;;;;;72.67;55.33;;;;;5.27;67.67;103178.91;5058830;28;45455;-67
2024/01/27 07:29:29;;;;;;;;;72.33;59.67;;;;;5.27;67.68;103172.00;5059465;28;45426;-67
2024/01/27 07:31:55;;;;;;;;;70.67;53.67;;;;;5.35;67.45;103185.47;5066562;28;45495;-66
2024/01/27 07:34:21;;;;;;;;;76.67;60.33;;;;;5.34;67.85;103188.88;5069377;28;45615;-66
2024/01/27 07:36:49;;;;;;;;;73.33;60.00;;;;;5.27;67.93;103191.91;5047923;28;47615;-67
2024/01/27 07:39:15;;;;;;;;;72.00;54.00;;;;;5.16;67.56;103179.94;5047359;28;45305;-67
2024/01/27 07:41:42;;;;;;;;;70.00;53.67;;;;;5.29;68.04;103195.47;5059224;28;45524;-67
2024/01/27 07:44:12;;;;;;;;;68.33;55.00;;;;;5.25;67.94;103198.69;5040805;28;45415;-67
2024/01/27 07:46:39;;;;;;;;;65.33;50.00;;;;;5.22;68.57;103188.09;5057424;28;46371;-64
2024/01/27 07:49:06;;;;;;;;;63.00;49.33;;;;;5.19;67.92;103193.09;5059882;28;45362;-67
2024/01/27 07:51:32;;;;;;;;;60.00;46.00;;;;;5.23;66.86;103201.19;5059135;28;45445;-65
2024/01/27 07:53:59;;;;;;;;;58.50;43.50;;;;;5.18;67.52;103187.03;5054255;28;45541;-65
2024/01/27 07:56:24;;;;;;;;;50.25;39.50;;;;;5.29;66.45;103186.00;5053662;28;46140;-66
2024/01/27 07:58:50;;;;;;;;;49.50;40.50;;;;;5.29;67.42;103165.22;5057514;28;45568;-65
2024/01/27 08:01:19;;;;;;;;;51.25;40.25;;;;;5.38;66.43;103158.78;5070009;28;45454;-65
2024/01/27 08:03:44;;;;;;;;;52.75;41.00;;;;;5.55;66.21;103185.81;5068452;28;45456;-62
2024/01/27 08:06:27;;;;;;;;;54.00;41.25;;;;;5.56;65.90;103180.72;5060254;28;46203;-65
2024/01/27 08:08:53;;;;;;;;;51.00;41.75;;;;;5.54;65.90;103171.91;5059507;28;45517;-64
2024/01/27 08:11:18;;;;;;;;;56.00;42.75;;;;;5.51;66.49;103184.75;5060231;28;45439;-64
2024/01/27 08:13:44;;;;;;;;;63.00;47.67;;;;;5.54;66.30;103187.50;5078423;28;45485;-64
2024/01/27 08:16:12;;;;;;;;;57.67;43.33;;;;;5.43;65.96;103197.22;5076372;28;46294;-64
2024/01/27 08:18:45;;;;;;;;;61.33;48.67;;;;;5.50;65.90;103207.25;5076096;28;45532;-64
2024/01/27 08:21:14;;;;;;;;;53.33;44.33;;;;;5.45;66.08;103208.63;5078466;28;45341;-65
2024/01/27 08:23:39;;;;;;;;;57.67;45.00;;;;;5.85;65.47;103199.78;5078022;28;45349;-63
2024/01/27 08:26:05;;;;;;;;;57.33;46.33;;;;;6.50;63.88;103186.31;5065888;28;45497;-66
2024/01/27 08:28:31;;;;;;;;;53.75;44.00;;;;;7.57;62.33;103194.94;5060012;28;45518;-64
2024/01/27 08:30:59;;;;;;;;;49.50;38.75;;;;;8.61;59.05;103180.22;5053445;28;45713;-65
2024/01/27 08:33:25;;;;;;;;;51.25;41.00;;;;;9.51;57.01;103181.00;5060428;28;45547;-64
2024/01/27 08:35:51;;;;;;;;;49.50;39.00;;;;;10.53;54.53;103176.72;5059240;28;45533;-67
2024/01/27 08:38:17;;;;;;;;;45.25;35.50;;;;;11.49;52.16;103178.75;5074513;28;45309;-64
2024/01/27 08:40:42;;;;;;;;;46.00;34.00;;;;;12.20;47.69;103171.69;5068631;28;45487;-64
2024/01/27 08:43:09;;;;;;;;;37.00;32.00;;;;;12.41;47.37;103173.22;5074640;28;45329;-64
2024/01/27 08:45:36;;;;;;;;;36.75;32.75;;;;;13.33;46.39;103168.25;5077695;28;46220;-64
2024/01/27 08:48:02;;;;;;;;;38.25;28.00;;;;;14.17;44.91;103162.69;5077787;28;45778;-64
2024/01/27 08:50:29;;;;;;;;;30.00;26.75;;;;;15.26;43.26;103167.06;5078331;28;45454;-65
2024/01/27 08:52:55;;;;;;;;;33.50;29.00;;;;;16.33;41.37;103155.00;5077446;28;45377;-63
2024/01/27 08:55:23;;;;;;;;;33.50;29.50;;;;;17.31;38.43;103159.13;5077458;28;45412;-63
2024/01/27 08:57:49;;;;;;;;;26.75;24.00;;;;;18.22;37.70;103160.09;5059741;28;45533;-64
2024/01/27 09:00:16;;;;;;;;;33.25;31.50;;;;;18.93;36.01;103158.88;5072087;28;45579;-64
2024/01/27 09:02:42;;;;;;;;;31.00;28.00;;;;;19.23;34.57;103157.28;5052914;28;45394;-64
2024/01/27 09:05:08;;;;;;;;;35.25;32.50;;;;;19.88;33.24;103145.06;5056214;28;45330;-64
2024/01/27 09:07:34;;;;;;;;;40.50;31.50;;;;;20.33;31.98;103130.94;5044720;28;45722;-64
2024/01/27 09:10:00;;;;;;;;;30.33;25.67;;;;;20.64;32.18;103135.34;5056814;28;45798;-64
2024/01/27 09:12:25;;;;;;;;;34.00;27.33;;;;;21.14;30.73;103124.56;5058249;28;45263;-66
2024/01/27 09:14:51;;;;;;;;;29.67;27.33;;;;;21.43;30.16;103134.22;5066327;28;45348;-66
2024/01/27 09:17:17;;;;;;;;;33.00;26.67;;;;;21.17;30.05;103139.63;5063644;28;45410;-67
2024/01/27 09:19:43;;;;;;;;;27.67;27.67;;;;;21.09;29.67;103117.44;5077689;28;45489;-66
2024/01/27 09:22:08;;;;;;;;;26.33;25.00;;;;;20.38;29.99;103130.03;5072221;28;45282;-65
2024/01/27 09:24:33;;;;;;;;;29.00;22.67;;;;;20.67;29.83;103117.59;5067665;28;45415;-65
2024/01/27 09:26:59;;;;;;;;;26.33;24.00;;;;;21.62;29.18;103129.66;5060478;28;45486;-65
2024/01/27 09:29:25;;;;;;;;;18.00;15.67;;;;;21.91;29.14;103124.13;5056118;28;45519;-65
2024/01/27 09:31:50;;;;;;;;;40.00;27.33;;;;;22.73;27.72;103110.03;5065233;28;45383;-66
2024/01/27 09:34:16;;;;;;;;;26.33;21.67;;;;;22.84;27.63;103121.50;5055321;28;46326;-65
2024/01/27 09:36:41;;;;;;;;;29.67;24.00;;;;;23.87;26.98;103113.00;5068216;28;45769;-63
2024/01/27 09:39:08;;;;;;;;;28.00;25.33;;;;;23.71;26.12;103120.34;5076049;28;45342;-65
2024/01/27 09:41:33;;;;;;;;;29.33;20.67;;;;;24.17;25.47;103100.00;5062400;28;45599;-64
2024/01/27 09:44:03;;;;;;;;;13.33;12.33;;;;;24.12;25.33;103101.88;5064783;28;46491;-65
2024/01/27 09:46:30;;;;;;;;;18.67;17.67;;;;;24.69;24.62;103119.59;5073327;28;45608;-65
2024/01/27 09:48:56;;;;;;;;;16.00;14.33;;;;;25.15;24.19;103116.88;5046947;28;45393;-67
2024/01/27 09:51:22;;;;;;;;;16.00;14.00;;;;;25.74;23.67;103115.56;5058734;28;45429;-65
2024/01/27 09:53:51;;;;;;;;;15.67;15.00;;;;;25.98;23.58;103119.47;5060358;28;45462;-65
2024/01/27 09:56:21;;;;;;;;;16.33;14.00;;;;;25.98;22.88;103115.00;5063347;28;45670;-66
2024/01/27 09:58:49;;;;;;;;;21.00;16.33;;;;;25.81;23.11;103125.22;5038618;28;45399;-66
2024/01/27 10:01:20;;;;;;;;;15.00;13.67;;;;;26.40;23.02;103125.53;5039515;28;45379;-66
2024/01/27 10:03:47;;;;;;;;;15.67;13.67;;;;;27.27;21.80;103114.13;5041638;28;46670;-65
2024/01/27 10:06:14;;;;;;;;;20.33;15.00;;;;;27.40;21.83;103117.31;5052566;28;45423;-67
2024/01/27 10:08:40;;;;;;;;;18.67;13.33;;;;;27.70;21.14;103118.16;5049825;28;45391;-67
2024/01/27 10:11:07;;;;;;;;;17.33;17.33;;;;;27.60;21.42;103127.47;5076672;28;45622;-67
2024/01/27 10:13:33;;;;;;;;;17.67;13.33;;;;;28.28;20.89;103117.13;5049741;28;45380;-67
2024/01/27 10:16:04;;;;;;;;;16.25;12.75;;;;;28.92;20.25;103132.81;5053440;28;45752;-69
2024/01/27 10:18:30;;;;;;;;;16.75;16.00;;;;;29.24;20.16;103122.66;5068062;28;45499;-67
2024/01/27 10:20:56;;;;;;;;;19.50;15.50;;;;;29.12;19.58;103097.91;5046676;28;45557;-67
2024/01/27 10:23:22;;;;;;;;;18.75;14.75;;;;;29.62;19.33;103122.94;5066402;28;46513;-67
2024/01/27 10:25:47;;;;;;;;;15.67;15.33;;;;;29.79;19.16;103124.00;5057329;28;45591;-67
2024/01/27 10:28:13;;;;;;;;;19.00;16.00;;;;;29.18;19.40;103118.34;5055637;28;45942;-64
2024/01/27 10:30:39;;;;;;;;;21.33;19.33;;;;;28.66;18.90;103123.88;5055764;28;45468;-64
2024/01/27 10:33:07;;;;;;;;;20.33;16.33;;;;;28.52;19.75;103104.63;5055395;28;46761;-66
2024/01/27 10:35:33;;;;;;;;;21.00;18.67;;;;;28.86;19.17;103116.88;5055607;28;45440;-65
2024/01/27 10:37:59;;;;;;;;;15.67;14.33;;;;;28.94;18.82;103125.53;5062235;28;45427;-65
2024/01/27 10:40:25;;;;;;;;;20.00;18.00;;;;;28.87;18.61;103124.88;5044634;28;45593;-63
2024/01/27 10:43:10;;;;;;;;;23.33;19.67;;;;;28.80;19.17;103117.09;5038928;28;46941;-65
2024/01/27 10:45:42;;;;;;;;;19.00;16.67;;;;;28.64;19.10;103119.47;5072809;28;45397;-64
2024/01/27 10:48:11;;;;;;;;;17.67;13.33;;;;;28.18;19.06;103110.31;5063258;28;45702;-64
2024/01/27 10:50:39;;;;;;;;;18.00;16.00;;;;;27.71;19.46;103116.31;5060816;28;45274;-65
2024/01/27 10:53:09;;;;;;;;;17.67;14.67;;;;;27.06;20.14;103122.81;5075294;28;45493;-65
2024/01/27 10:55:36;;;;;;;;;14.67;14.67;;;;;26.53;20.49;103118.03;5077131;28;45363;-65
2024/01/27 10:58:03;;;;;;;;;16.33;14.33;;;;;26.65;20.39;103106.09;5077620;28;45535;-65
2024/01/27 11:00:30;;;;;;;;;16.00;13.67;;;;;27.01;20.38;103100.56;5079481;28;45515;-65
2024/01/27 11:03:01;;;;;;;;;19.67;15.67;;;;;26.42;20.48;103095.94;5079321;28;45596;-65
2024/01/27 11:05:31;;;;;;;;;15.67;15.67;;;;;25.47;21.21;103090.28;5075552;28;45535;-65
2024/01/27 11:08:02;;;;;;;;;18.67;16.00;;;;;25.31;22.25;103098.66;5059992;28;45409;-64
2024/01/27 11:10:35;;;;;;;;;18.33;15.00;;;;;24.07;22.42;103069.81;5032835;28;45427;-66
2024/01/27 11:13:02;;;;;;;;;19.67;17.00;;;;;22.91;23.84;103095.59;5051692;28;45335;-61
2024/01/27 11:15:28;;;;;;;;;17.00;16.00;;;;;22.10;24.71;103081.28;5080077;28;45289;-63